Time;durP1;ratioP1;P1;durP2;ratioP2;P2;SDS_P1;SDS_P2;PMS_P1;PMS_P2;Temp;Humidity;BMP_temperature;BMP_pressure;BME280_temperature;BME280_humidity;BME280_pressure;Samples;Min_cycle;Max_cycle;Signal;HPM_P1;HPM_P2
2023/01/14 00:00:42;;;;;;;30.93;27.50;;;;;;;7.84;100.00;102047.59;2106821;28;20655;-59
2023/01/14 00:01:43;;;;;;;31.47;28.07;;;;;;;7.35;100.00;101972.59;2103186;28;20200;-59
2023/01/14 00:02:43;;;;;;;31.27;27.87;;;;;;;7.83;100.00;102049.53;2098349;28;20645;-59
2023/01/14 00:03:44;;;;;;;30.63;27.33;;;;;;;7.83;100.00;102043.22;2098052;28;20790;-60
2023/01/14 00:04:45;;;;;;;32.37;28.13;;;;;;;7.83;100.00;102046.78;2098494;28;20172;-59
2023/01/14 00:05:55;;;;;;;29.77;26.57;;;;;;;7.85;100.00;102051.94;2098457;28;20175;-59
2023/01/14 00:06:55;;;;;;;29.47;26.20;;;;;;;7.84;100.00;102045.59;2098307;28;20567;-59
2023/01/14 00:07:56;;;;;;;32.83;28.20;;;;;;;7.84;100.00;102042.06;2098422;28;20441;-60
2023/01/14 00:08:59;;;;;;;30.03;26.83;;;;;;;7.81;100.00;102042.81;2098386;28;20179;-59
2023/01/14 00:09:59;;;;;;;30.37;27.10;;;;;;;7.78;100.00;102043.56;2098250;28;20690;-59
2023/01/14 00:11:04;;;;;;;31.57;28.27;;;;;;;7.78;100.00;102060.13;2098272;28;20791;-58
2023/01/14 00:12:04;;;;;;;30.75;26.67;;;;;;;7.77;100.00;102047.50;2098332;28;20166;-60
2023/01/14 00:13:05;;;;;;;30.97;27.67;;;;;;;7.78;100.00;102047.13;2098440;28;20182;-59
2023/01/14 00:14:05;;;;;;;31.53;27.03;;;;;;;7.79;100.00;102047.94;2102888;28;20189;-59
2023/01/14 00:15:06;;;;;;;31.63;28.23;;;;;;;7.82;100.00;102052.69;2106746;28;20646;-59
2023/01/14 00:16:10;;;;;;;30.67;27.17;;;;;;;7.83;100.00;102057.81;2106652;28;20200;-59
2023/01/14 00:17:11;;;;;;;30.63;27.33;;;;;;;7.82;100.00;102053.50;2106366;28;20670;-58
2023/01/14 00:18:11;;;;;;;32.27;26.83;;;;;;;7.84;100.00;102055.88;2106606;28;20550;-59
2023/01/14 00:19:12;;;;;;;30.13;26.93;;;;;;;7.83;100.00;102051.50;2106479;28;20216;-59
2023/01/14 00:20:13;;;;;;;31.20;27.13;;;;;;;7.71;100.00;102029.72;2106669;28;20220;-59
2023/01/14 00:21:14;;;;;;;29.80;26.60;;;;;;;7.83;100.00;102048.75;2106575;28;20185;-59
2023/01/14 00:22:14;;;;;;;29.40;26.23;;;;;;;7.83;100.00;102051.50;2106607;28;20185;-59
2023/01/14 00:23:15;;;;;;;29.60;26.23;;;;;;;7.12;100.00;101939.63;2104287;28;20435;-59
2023/01/14 00:24:18;;;;;;;31.70;26.83;;;;;;;7.88;100.00;102049.22;2098269;28;20183;-60
2023/01/14 00:25:20;;;;;;;29.83;26.57;;;;;;;7.86;100.00;102042.47;2098254;28;20195;-60
2023/01/14 00:26:21;;;;;;;30.20;26.50;;;;;;;7.86;100.00;102054.31;2097923;28;20447;-58
2023/01/14 00:27:22;;;;;;;30.27;25.63;;;;;;;7.84;100.00;102053.88;2098279;28;20319;-60
2023/01/14 00:28:22;;;;;;;29.97;25.77;;;;;;;7.86;100.00;102042.47;2103964;28;20651;-60
2023/01/14 00:29:26;;;;;;;27.07;24.20;;;;;;;7.80;100.00;102050.28;2106522;28;20180;-59
2023/01/14 00:30:26;;;;;;;29.08;25.40;;;;;;;7.78;100.00;102055.41;2106691;28;20243;-59
2023/01/14 00:31:28;;;;;;;28.53;25.53;;;;;;;7.81;100.00;102046.38;2106637;28;20233;-59
2023/01/14 00:32:28;;;;;;;28.70;25.60;;;;;;;7.70;100.00;102025.38;2106390;28;20215;-59
2023/01/14 00:33:29;;;;;;;27.67;24.77;;;;;;;7.79;100.00;102029.41;2098834;28;20470;-60
2023/01/14 00:34:30;;;;;;;28.63;25.47;;;;;;;7.89;100.00;102044.50;2098338;28;20180;-59
2023/01/14 00:35:31;;;;;;;26.63;23.80;;;;;;;7.88;100.00;102042.88;2098156;28;20175;-60
2023/01/14 00:36:31;;;;;;;26.63;23.80;;;;;;;7.64;100.00;101997.31;2098117;28;20681;-60
2023/01/14 00:37:32;;;;;;;26.50;23.63;;;;;;;7.88;100.00;102045.63;2097229;28;20190;-59
2023/01/14 00:38:33;;;;;;;26.33;23.53;;;;;;;7.91;100.00;102042.13;2098024;28;20296;-59
2023/01/14 00:39:33;;;;;;;26.43;23.53;;;;;;;7.91;100.00;102045.69;2097779;28;20186;-60
2023/01/14 00:40:33;;;;;;;25.97;23.27;;;;;;;7.93;100.00;102045.28;2105008;28;20532;-60
2023/01/14 00:41:34;;;;;;;27.40;23.93;;;;;;;7.93;100.00;102045.28;2106579;28;20613;-59
2023/01/14 00:42:34;;;;;;;25.50;22.90;;;;;;;7.97;100.00;102051.66;2101488;28;20194;-59
2023/01/14 00:43:37;;;;;;;25.33;22.50;;;;;;;7.74;100.00;102018.69;2098115;28;20188;-59
2023/01/14 00:44:37;;;;;;;24.57;22.07;;;;;;;7.95;100.00;102054.78;2098063;28;20268;-59
2023/01/14 00:45:38;;;;;;;24.90;22.30;;;;;;;7.94;100.00;102047.69;2097966;28;20494;-59
2023/01/14 00:46:40;;;;;;;26.37;23.50;;;;;;;7.95;100.00;102052.03;2098115;28;20190;-59
2023/01/14 00:47:41;;;;;;;25.67;22.97;;;;;;;6.96;100.00;101894.16;2098028;28;20186;-59
2023/01/14 00:48:42;;;;;;;25.27;22.67;;;;;;;7.96;100.00;102048.13;2097931;28;20421;-59
2023/01/14 00:49:42;;;;;;;25.30;22.57;;;;;;;7.98;100.00;102044.94;2097790;28;20191;-60
2023/01/14 00:50:43;;;;;;;24.17;21.37;;;;;;;7.99;100.00;102046.56;2098076;28;20407;-60
2023/01/14 00:51:44;;;;;;;24.73;22.13;;;;;;;7.96;100.00;102031.53;2100141;28;20260;-59
2023/01/14 00:52:44;;;;;;;23.27;20.80;;;;;;;8.02;100.00;102046.59;2106166;28;20202;-59
2023/01/14 00:53:47;;;;;;;23.57;21.07;;;;;;;8.05;100.00;102045.03;2106515;28;20202;-59
2023/01/14 00:54:48;;;;;;;23.93;21.43;;;;;;;8.05;100.00;102040.28;2106498;28;20261;-59
2023/01/14 00:55:48;;;;;;;23.27;20.77;;;;;;;8.03;100.00;102047.34;2106474;28;20920;-60
2023/01/14 00:56:49;;;;;;;24.13;21.07;;;;;;;7.91;100.00;102029.13;2100772;28;20198;-59
2023/01/14 00:57:49;;;;;;;23.77;21.27;;;;;;;8.01;100.00;102041.44;2102089;28;20182;-59
2023/01/14 00:58:50;;;;;;;22.50;20.03;;;;;;;8.01;100.00;102041.44;2106274;28;20538;-59
2023/01/14 00:59:50;;;;;;;22.50;20.10;;;;;;;8.03;100.00;102047.34;2106353;28;20190;-59
2023/01/14 01:00:53;;;;;;;22.67;20.03;;;;;;;8.03;100.00;102039.06;2106303;28;20182;-60
2023/01/14 01:01:55;;;;;;;22.70;19.87;;;;;;;8.02;100.00;102034.75;2098013;28;20190;-60
2023/01/14 01:02:57;;;;;;;24.55;20.30;;;;;;;8.01;100.00;102036.72;2097847;28;20416;-59
2023/01/14 01:03:58;;;;;;;22.00;19.70;;;;;;;8.02;100.00;102035.53;2097823;28;20202;-59
2023/01/14 01:04:58;;;;;;;22.57;20.27;;;;;;;8.04;100.00;102035.94;2089219;28;20460;-59
2023/01/14 01:05:58;;;;;;;22.50;20.20;;;;;;;8.05;100.00;102034.75;2092070;28;20700;-59
2023/01/14 01:06:59;;;;;;;22.80;20.40;;;;;;;8.04;100.00;102029.66;2106221;28;20229;-59
2023/01/14 01:08:00;;;;;;;22.87;19.47;;;;;;;8.04;100.00;102035.16;2106414;28;20174;-60
2023/01/14 01:09:01;;;;;;;22.37;19.97;;;;;;;8.03;100.00;102028.84;2097756;28;20441;-59
2023/01/14 01:10:01;;;;;;;21.70;19.43;;;;;;;8.03;100.00;102028.84;2097886;28;20266;-59
2023/01/14 01:11:02;;;;;;;23.13;20.67;;;;;;;8.01;100.00;102027.63;2097848;28;20939;-59
2023/01/14 01:12:03;;;;;;;20.73;18.53;;;;;;;8.00;100.00;102024.06;2097982;28;20183;-59
2023/01/14 01:13:04;;;;;;;22.40;20.07;;;;;;;8.03;100.00;102030.78;2097755;28;20246;-59
2023/01/14 01:14:04;;;;;;;22.70;20.27;;;;;;;8.04;100.00;102026.88;2097819;28;20266;-59
2023/01/14 01:15:05;;;;;;;21.80;19.43;;;;;;;8.00;100.00;102023.28;2097960;28;20851;-59
2023/01/14 01:16:10;;;;;;;22.27;19.87;;;;;;;8.01;100.00;102031.19;2097809;28;20179;-59
2023/01/14 01:17:10;;;;;;;22.57;20.07;;;;;;;8.02;100.00;102020.94;2097697;28;20233;-59
2023/01/14 01:18:12;;;;;;;23.07;19.90;;;;;;;8.01;100.00;102017.41;2093475;28;20454;-59
2023/01/14 01:19:13;;;;;;;21.07;18.97;;;;;;;8.02;100.00;102018.16;2097274;28;20181;-60
2023/01/14 01:20:13;;;;;;;21.53;19.23;;;;;;;8.07;100.00;102017.81;2103636;28;20505;-59
2023/01/14 01:21:15;;;;;;;22.30;20.00;;;;;;;8.08;100.00;102022.16;2097636;28;20213;-59
2023/01/14 01:22:16;;;;;;;21.50;19.23;;;;;;;8.06;100.00;102016.25;2097753;28;20192;-59
2023/01/14 01:23:17;;;;;;;22.13;19.83;;;;;;;8.06;100.00;102019.00;2097796;28;20420;-59
2023/01/14 01:24:17;;;;;;;22.77;20.17;;;;;;;8.03;100.00;102017.78;2097856;28;20199;-59
2023/01/14 01:25:17;;;;;;;22.90;20.50;;;;;;;6.45;100.00;101772.00;2097485;28;20232;-59
2023/01/14 01:26:21;;;;;;;22.70;20.30;;;;;;;7.99;100.00;102016.19;2097830;28;20238;-59
2023/01/14 01:27:22;;;;;;;22.33;20.03;;;;;;;7.99;100.00;102014.22;2088875;28;20189;-59
2023/01/14 01:28:22;;;;;;;23.23;20.80;;;;;;;7.97;100.00;102013.81;2089014;28;20955;-60
2023/01/14 01:29:23;;;;;;;22.37;20.07;;;;;;;7.97;100.00;102016.56;2097639;28;20254;-60
2023/01/14 01:30:24;;;;;;;23.80;20.13;;;;;;;7.89;100.00;102009.38;2105634;28;20192;-59
2023/01/14 01:31:27;;;;;;;23.03;20.63;;;;;;;7.96;100.00;102014.97;2098390;28;20202;-59
2023/01/14 01:32:27;;;;;;;22.57;20.17;;;;;;;7.97;100.00;102008.28;2097531;28;20499;-59
2023/01/14 01:33:28;;;;;;;23.10;20.03;;;;;;;7.92;100.00;101997.59;2097805;28;20431;-59
2023/01/14 01:34:29;;;;;;;22.20;19.90;;;;;;;7.95;100.00;102010.63;2097567;28;20200;-60
2023/01/14 01:35:29;;;;;;;23.27;20.80;;;;;;;7.93;100.00;102014.94;2097823;28;20608;-60
2023/01/14 01:36:30;;;;;;;22.77;20.40;;;;;;;7.91;100.00;102012.56;2098210;28;20223;-59
2023/01/14 01:37:30;;;;;;;22.73;20.43;;;;;;;7.91;100.00;102007.06;2106141;28;20240;-59
2023/01/14 01:38:31;;;;;;;23.13;20.73;;;;;;;7.87;100.00;102003.47;2106115;28;20202;-59
2023/01/14 01:39:32;;;;;;;23.43;20.93;;;;;;;7.83;100.00;102012.88;2100515;28;21067;-59
2023/01/14 01:40:32;;;;;;;24.37;21.97;;;;;;;7.81;100.00;102005.00;2097660;28;20991;-59
2023/01/14 01:41:32;;;;;;;23.67;21.17;;;;;;;7.82;100.00;102014.84;2099543;28;20539;-60
2023/01/14 01:42:34;;;;;;;24.40;21.90;;;;;;;7.79;100.00;102004.56;2105953;28;20175;-59
2023/01/14 01:43:36;;;;;;;23.40;21.00;;;;;;;7.45;100.00;101960.88;2106004;28;20185;-58
2023/01/14 01:44:36;;;;;;;23.63;21.07;;;;;;;7.77;100.00;102009.69;2097754;28;20425;-60
2023/01/14 01:45:42;;;;;;;24.17;21.60;;;;;;;7.82;100.00;102008.53;2097624;28;20484;-59
2023/01/14 01:46:43;;;;;;;23.67;21.27;;;;;;;7.82;100.00;102009.31;2103313;28;20184;-60
2023/01/14 01:47:43;;;;;;;23.73;20.73;;;;;;;7.73;100.00;101994.25;2106186;28;20894;-59
2023/01/14 01:48:44;;;;;;;24.03;21.53;;;;;;;7.84;100.00;102008.97;2105844;28;20260;-59
2023/01/14 01:49:46;;;;;;;24.00;21.40;;;;;;;7.84;100.00;102006.19;2105992;28;20660;-59
2023/01/14 01:50:51;;;;;;;24.77;22.17;;;;;;;7.27;100.00;101921.28;2105979;28;20565;-59
2023/01/14 01:51:58;;;;;;;25.35;21.45;;;;;;;7.81;100.00;102005.00;2097879;28;20457;-59
2023/01/14 01:52:59;;;;;;;24.10;21.60;;;;;;;7.80;100.00;102008.13;2097494;28;20202;-59
2023/01/14 01:54:00;;;;;;;23.87;21.37;;;;;;;7.81;100.00;102004.19;2097553;28;20456;-59
2023/01/14 01:55:06;;;;;;;24.27;21.73;;;;;;;7.77;100.00;101995.06;2097535;28;20448;-59
2023/01/14 01:56:09;;;;;;;24.43;21.93;;;;;;;7.75;100.00;102003.72;2097684;28;20436;-60
2023/01/14 01:57:14;;;;;;;26.17;22.07;;;;;;;7.75;100.00;102003.72;2097671;28;20436;-60
2023/01/14 01:58:15;;;;;;;24.80;22.20;;;;;;;7.14;100.00;101908.94;2097714;28;20425;-59
2023/01/14 01:59:25;;;;;;;24.60;21.97;;;;;;;7.76;100.00;101999.00;2097569;28;20424;-60
2023/01/14 02:00:26;;;;;;;24.02;21.45;;;;;;;7.77;100.00;102003.34;2098346;28;20582;-59
2023/01/14 02:01:26;;;;;;;22.87;20.57;;;;;;;7.70;100.00;102004.06;2106150;28;20248;-59
2023/01/14 02:02:28;;;;;;;24.17;21.67;;;;;;;7.62;100.00;101996.91;2097626;28;20204;-59
2023/01/14 02:03:40;;;;;;;24.93;22.23;;;;;;;7.27;100.00;101957.13;2097548;28;20223;-59
2023/01/14 02:04:41;;;;;;;24.43;21.77;;;;;;;7.61;100.00;102000.84;2104934;28;21010;-59
2023/01/14 02:05:42;;;;;;;24.67;22.03;;;;;;;7.37;100.00;101954.50;2099368;28;20899;-59
2023/01/14 02:06:42;;;;;;;24.93;22.23;;;;;;;7.65;100.00;102003.63;2097675;28;20175;-59
2023/01/14 02:07:43;;;;;;;24.43;21.87;;;;;;;7.67;100.00;101996.56;2097566;28;20412;-60
2023/01/14 02:08:48;;;;;;;24.10;21.60;;;;;;;7.67;100.00;101998.53;2097686;28;20267;-59
2023/01/14 02:09:59;;;;;;;24.23;21.60;;;;;;;7.66;100.00;101992.22;2097566;28;20167;-60
2023/01/14 02:11:41;;;;;;;24.40;21.80;;;;;;;7.65;100.00;101996.16;2097606;28;20424;-59
2023/01/14 02:13:15;;;;;;;22.73;20.30;;;;;;;7.69;100.00;102001.72;2096522;28;20538;-59
2023/01/14 02:14:39;;;;;;;23.98;21.27;;;;;;;7.68;100.00;101994.63;2097616;28;20405;-60
2023/01/14 02:16:15;;;;;;;23.40;20.90;;;;;;;7.65;100.00;101996.16;2097630;28;20199;-59
2023/01/14 02:17:27;;;;;;;24.70;21.07;;;;;;;7.64;100.00;102002.06;2087948;28;20436;-60
2023/01/14 02:18:33;;;;;;;23.47;20.70;;;;;;;7.60;100.00;101995.69;2097378;28;20451;-59
2023/01/14 02:20:22;;;;;;;24.60;21.20;;;;;;;7.48;100.00;101998.75;2097407;28;20473;-59
2023/01/14 02:21:29;;;;;;;24.73;20.95;;;;;;;7.48;100.00;101996.75;2088703;28;20411;-60
2023/01/14 02:23:05;;;;;;;26.67;21.30;;;;;;;7.41;100.00;101998.66;2096774;28;20281;-59
2023/01/14 02:24:37;;;;;;;24.17;21.55;;;;;;;7.44;100.00;102004.19;2065823;28;20489;-59
2023/01/14 02:25:59;;;;;;;26.23;22.07;;;;;;;7.41;100.00;101999.44;2094017;28;20189;-59
2023/01/14 02:27:35;;;;;;;25.00;22.10;;;;;;;7.42;100.00;101992.75;2100031;28;20405;-59
2023/01/14 02:28:51;;;;;;;24.38;21.45;;;;;;;7.33;100.00;101983.22;2063634;28;20430;-59
2023/01/14 02:30:10;;;;;;;23.53;21.03;;;;;;;7.43;100.00;101991.59;2072085;28;20174;-60
2023/01/14 02:31:14;;;;;;;22.83;20.42;;;;;;;7.43;100.00;101988.81;2105854;28;20505;-59
2023/01/14 02:32:41;;;;;;;22.95;20.48;;;;;;;7.46;100.00;101992.78;2105059;28;20181;-60
2023/01/14 02:33:47;;;;;;;23.33;20.83;;;;;;;7.46;100.00;101990.84;2097558;28;20654;-59
2023/01/14 02:34:57;;;;;;;25.13;21.77;;;;;;;7.44;100.00;101989.63;2097544;28;20166;-59
2023/01/14 02:36:15;;;;;;;23.53;21.03;;;;;;;7.49;100.00;101992.06;2097474;28;20423;-59
2023/01/14 02:37:34;;;;;;;23.87;21.37;;;;;;;7.47;100.00;101992.41;2100141;28;20443;-60
2023/01/14 02:38:53;;;;;;;24.47;21.80;;;;;;;7.50;100.00;101990.88;2105840;28;20409;-59
2023/01/14 02:40:23;;;;;;;23.07;20.60;;;;;;;7.02;100.00;101918.25;2105860;28;20500;-59
2023/01/14 02:45:11;;;;;;;23.67;20.43;;;;;;;7.18;100.00;101940.09;2104060;28;20411;-59
2023/01/14 02:46:15;;;;;;;24.67;21.27;;;;;;;7.42;100.00;101969.88;2105833;28;20496;-59
2023/01/14 02:47:20;;;;;;;24.13;21.13;;;;;;;7.50;100.00;101974.31;2105723;28;20446;-60
2023/01/14 02:48:23;;;;;;;24.77;22.07;;;;;;;7.57;100.00;101982.66;2105762;28;20178;-59
2023/01/14 02:49:27;;;;;;;23.80;21.23;;;;;;;7.57;100.00;101979.91;2101429;28;20469;-59
2023/01/14 02:50:30;;;;;;;24.87;22.17;;;;;;;7.54;100.00;101988.94;2100783;28;20429;-60
2023/01/14 02:51:32;;;;;;;23.90;21.33;;;;;;;7.52;100.00;101983.00;2105879;28;20799;-59
2023/01/14 02:52:33;;;;;;;24.47;21.87;;;;;;;7.53;100.00;101981.84;2095250;28;20463;-60
2023/01/14 02:53:34;;;;;;;25.83;22.50;;;;;;;7.47;100.00;101975.88;2088525;28;20957;-59
2023/01/14 02:54:35;;;;;;;24.90;22.23;;;;;;;7.52;100.00;101972.78;2097420;28;20175;-60
2023/01/14 02:55:37;;;;;;;24.73;21.73;;;;;;;7.49;100.00;101970.75;2100462;28;20681;-59
2023/01/14 02:56:38;;;;;;;24.23;21.63;;;;;;;7.46;100.00;101976.25;2105763;28;20248;-59
2023/01/14 02:57:50;;;;;;;24.57;21.97;;;;;;;7.35;100.00;101978.91;2105855;28;20412;-59
2023/01/14 02:59:19;;;;;;;24.53;21.90;;;;;;;7.41;100.00;101971.88;2105713;28;20173;-58
2023/01/14 03:00:23;;;;;;;25.33;21.97;;;;;;;7.43;100.00;101968.75;2074781;28;20925;-59
2023/01/14 03:01:45;;;;;;;25.50;21.90;;;;;;;7.45;100.00;101963.63;2098346;28;20411;-59
2023/01/14 03:03:19;;;;;;;24.63;21.80;;;;;;;7.48;100.00;101973.91;2098963;28;20408;-59
2023/01/14 03:04:35;;;;;;;23.87;20.63;;;;;;;7.48;100.00;101968.41;2099024;28;20862;-59
2023/01/14 03:05:53;;;;;;;24.87;21.40;;;;;;;7.45;100.00;101969.16;2107250;28;20404;-58
2023/01/14 03:07:02;;;;;;;24.40;21.00;;;;;;;7.44;100.00;101971.09;2107139;28;20457;-60
2023/01/14 03:08:14;;;;;;;22.33;19.47;;;;;;;7.46;100.00;101976.25;2107385;28;20398;-59
2023/01/14 03:09:44;;;;;;;24.07;20.40;;;;;;;7.47;100.00;101978.63;2105330;28;20408;-59
2023/01/14 03:10:56;;;;;;;23.85;21.15;;;;;;;7.47;100.00;101981.38;2098985;28;20753;-60
2023/01/14 03:12:17;;;;;;;24.02;21.02;;;;;;;7.46;100.00;101977.03;2102817;28;20186;-60
2023/01/14 03:13:30;;;;;;;23.10;20.00;;;;;;;6.99;100.00;101908.00;2107314;28;20618;-59
2023/01/14 03:14:38;;;;;;;25.48;21.58;;;;;;;7.45;100.00;101974.66;2107024;28;20952;-59
2023/01/14 03:16:10;;;;;;;23.77;20.50;;;;;;;7.48;100.00;101973.91;2098238;28;20171;-59
2023/01/14 03:17:28;;;;;;;22.58;20.13;;;;;;;7.48;100.00;101976.69;2081984;28;20937;-59
2023/01/14 03:19:07;;;;;;;23.08;19.80;;;;;;;7.49;100.00;101969.97;2098850;28;20273;-60
2023/01/14 03:20:16;;;;;;;21.87;19.13;;;;;;;7.47;100.00;101970.34;2098001;28;20251;-59
2023/01/14 03:21:22;;;;;;;24.48;20.35;;;;;;;7.52;100.00;101963.69;2107018;28;20400;-59
2023/01/14 03:22:25;;;;;;;22.63;19.60;;;;;;;7.59;100.00;101969.28;2107038;28;20180;-59
2023/01/14 03:23:28;;;;;;;22.83;19.40;;;;;;;7.58;100.00;101967.72;2107088;28;21020;-59
2023/01/14 03:24:30;;;;;;;23.60;20.80;;;;;;;7.56;100.00;101973.59;2106896;28;20804;-60
2023/01/14 03:25:35;;;;;;;24.25;20.75;;;;;;;7.56;100.00;101973.59;2107042;28;20186;-59
2023/01/14 03:26:38;;;;;;;22.57;20.10;;;;;;;7.56;100.00;101973.59;2107110;28;20286;-60
2023/01/14 03:27:41;;;;;;;21.97;19.60;;;;;;;7.52;100.00;101964.50;2101442;28;20809;-59
2023/01/14 03:28:47;;;;;;;21.53;18.93;;;;;;;7.60;100.00;101974.44;2103484;28;20435;-59
2023/01/14 03:29:53;;;;;;;24.23;20.47;;;;;;;7.55;100.00;101966.50;2102513;28;20454;-59
2023/01/14 03:31:04;;;;;;;22.77;19.65;;;;;;;7.61;100.00;101973.25;2098568;28;21002;-60
2023/01/14 03:32:15;;;;;;;22.10;19.40;;;;;;;7.60;100.00;101973.63;2098699;28;20172;-59
2023/01/14 03:33:22;;;;;;;23.67;19.20;;;;;;;7.01;100.00;101878.09;2102353;28;20525;-59
2023/01/14 03:34:30;;;;;;;21.42;18.98;;;;;;;7.53;100.00;101966.06;2107129;28;20460;-60
2023/01/14 03:35:34;;;;;;;21.90;19.37;;;;;;;7.26;100.00;101922.44;2103284;28;20383;-59
2023/01/14 03:36:37;;;;;;;22.17;18.85;;;;;;;7.61;100.00;101977.97;2098605;28;20412;-59
2023/01/14 03:37:44;;;;;;;21.70;19.40;;;;;;;7.60;100.00;101974.44;2098392;28;20177;-59
2023/01/14 03:38:54;;;;;;;21.40;18.60;;;;;;;7.63;100.00;101970.91;2100001;28;20832;-59
2023/01/14 03:39:57;;;;;;;21.97;19.20;;;;;;;7.38;100.00;101944.25;2104725;28;20419;-59
2023/01/14 03:41:00;;;;;;;22.07;18.90;;;;;;;7.58;100.00;101976.75;2089568;28;20438;-59
2023/01/14 03:42:20;;;;;;;21.83;19.53;;;;;;;7.13;100.00;101902.63;2090319;28;20923;-59
2023/01/14 03:43:34;;;;;;;22.58;18.70;;;;;;;7.61;100.00;101989.00;2105636;28;20410;-60
2023/01/14 03:45:07;;;;;;;21.47;18.40;;;;;;;7.19;100.00;101919.63;2100435;28;20174;-59
2023/01/14 03:46:08;;;;;;;23.43;19.27;;;;;;;7.44;100.00;101962.81;2103586;28;20458;-59
2023/01/14 03:47:08;;;;;;;23.27;19.13;;;;;;;7.57;100.00;101990.94;2106883;28;20994;-60
2023/01/14 03:48:09;;;;;;;23.70;19.27;;;;;;;7.57;100.00;101988.16;2106591;28;20851;-60
2023/01/14 03:49:10;;;;;;;26.13;20.07;;;;;;;7.59;100.00;101991.38;2106064;28;20186;-58
2023/01/14 03:50:14;;;;;;;23.90;19.63;;;;;;;7.59;100.00;101985.84;2098631;28;20508;-60
2023/01/14 03:51:29;;;;;;;23.83;18.15;;;;;;;7.59;100.00;101994.13;2098662;28;20174;-60
2023/01/14 03:52:56;;;;;;;25.08;18.40;;;;;;;7.60;100.00;101995.69;2098593;28;20160;-59
2023/01/14 03:54:03;;;;;;;24.77;18.43;;;;;;;7.61;100.00;101989.00;2098381;28;20159;-60
2023/01/14 03:55:16;;;;;;;26.57;18.73;;;;;;;7.66;100.00;101989.47;2098361;28;20817;-59
2023/01/14 03:56:40;;;;;;;20.27;18.10;;;;;;;7.68;100.00;101994.63;2099106;28;20414;-59
2023/01/14 03:57:59;;;;;;;23.13;17.67;;;;;;;7.66;100.00;101991.41;2103818;28;20185;-59
2023/01/14 03:59:26;;;;;;;23.05;18.20;;;;;;;7.66;100.00;101991.41;2098309;28;20210;-59
2023/01/14 04:00:40;;;;;;;20.73;18.23;;;;;;;7.62;100.00;101996.09;2098395;28;20697;-59
2023/01/14 04:01:45;;;;;;;21.10;18.57;;;;;;;7.59;100.00;101996.88;2098330;28;20411;-59
2023/01/14 04:02:46;;;;;;;21.20;18.77;;;;;;;7.60;100.00;101993.75;2098427;28;20413;-59
2023/01/14 04:03:47;;;;;;;22.77;19.33;;;;;;;7.63;100.00;101992.97;2103359;28;20185;-60
2023/01/14 04:04:50;;;;;;;24.40;20.43;;;;;;;7.60;100.00;101991.00;2106775;28;20412;-59
2023/01/14 04:05:53;;;;;;;25.80;20.47;;;;;;;7.18;100.00;101915.28;2104948;28;20436;-59
2023/01/14 04:06:53;;;;;;;22.70;20.17;;;;;;;7.41;100.00;101943.50;2099065;28;20424;-59
2023/01/14 04:07:57;;;;;;;24.30;19.30;;;;;;;7.42;100.00;101950.59;2106896;28;20421;-59
2023/01/14 04:08:57;;;;;;;22.77;19.38;;;;;;;7.65;100.00;101993.41;2106706;28;20210;-59
2023/01/14 04:09:58;;;;;;;23.47;19.93;;;;;;;7.62;100.00;101988.63;2106646;28;20630;-59
2023/01/14 04:10:58;;;;;;;22.77;19.57;;;;;;;6.93;100.00;101876.44;2101368;28;20187;-59
2023/01/14 04:11:59;;;;;;;24.00;20.40;;;;;;;7.24;100.00;101933.06;2098018;28;20221;-59
2023/01/14 04:15:42;;;;;;;22.85;19.73;;;;;;;7.62;100.00;101999.66;2080577;28;20458;-59
2023/01/14 04:16:43;;;;;;;23.43;18.83;;;;;;;7.64;100.00;101993.78;2096147;28;20192;-59
2023/01/14 04:17:43;;;;;;;23.30;19.37;;;;;;;7.63;100.00;101998.50;2101998;28;20228;-59
2023/01/14 04:18:45;;;;;;;23.83;20.20;;;;;;;7.40;100.00;101955.69;2106491;28;20207;-59
2023/01/14 04:19:45;;;;;;;23.90;19.83;;;;;;;7.65;100.00;101987.88;2106552;28;20526;-60
2023/01/14 04:20:46;;;;;;;22.63;19.10;;;;;;;7.67;100.00;102001.28;2106655;28;20199;-60
2023/01/14 04:21:46;;;;;;;26.23;19.40;;;;;;;7.68;100.00;102000.91;2106660;28;20205;-60
2023/01/14 04:22:47;;;;;;;22.30;19.40;;;;;;;7.67;100.00;101999.31;2106400;28;20314;-60
2023/01/14 04:23:47;;;;;;;22.47;19.13;;;;;;;7.70;100.00;102000.53;2106662;28;20189;-59
2023/01/14 04:24:48;;;;;;;21.97;18.50;;;;;;;7.25;100.00;101923.63;2104360;28;20608;-60
2023/01/14 04:25:54;;;;;;;21.70;19.10;;;;;;;7.74;100.00;101993.09;2098008;28;20277;-59
2023/01/14 04:26:55;;;;;;;24.67;19.02;;;;;;;7.76;100.00;101999.81;2098257;28;20625;-59
2023/01/14 04:27:55;;;;;;;21.20;18.90;;;;;;;7.36;100.00;101928.09;2098345;28;20541;-59
2023/01/14 04:28:56;;;;;;;21.27;18.70;;;;;;;7.72;100.00;101993.47;2098230;28;20207;-59
2023/01/14 04:29:56;;;;;;;23.13;19.27;;;;;;;7.77;100.00;101998.63;2098168;28;20181;-59
2023/01/14 04:30:57;;;;;;;23.50;19.30;;;;;;;7.64;100.00;101982.75;2097900;28;20187;-60
2023/01/14 04:31:57;;;;;;;22.63;19.60;;;;;;;7.81;100.00;102002.22;2098136;28;20181;-59
2023/01/14 04:32:57;;;;;;;23.13;18.80;;;;;;;7.81;100.00;102001.41;2099466;28;20684;-59
2023/01/14 04:33:58;;;;;;;22.03;18.93;;;;;;;7.77;100.00;101993.13;2106690;28;20228;-60
2023/01/14 04:34:58;;;;;;;22.47;19.10;;;;;;;7.81;100.00;102001.41;2106498;28;20174;-60
2023/01/14 04:35:59;;;;;;;22.87;19.57;;;;;;;7.77;100.00;101997.81;2100147;28;20202;-59
2023/01/14 04:36:59;;;;;;;23.27;19.47;;;;;;;7.83;100.00;101996.31;2098244;28;20186;-58
2023/01/14 04:37:59;;;;;;;20.90;18.47;;;;;;;7.85;100.00;102000.28;2098217;28;20562;-59
2023/01/14 04:39:00;;;;;;;21.67;18.60;;;;;;;7.85;100.00;102003.03;2097805;28;20174;-60
2023/01/14 04:40:00;;;;;;;22.97;19.37;;;;;;;7.89;100.00;102009.38;2098112;28;20650;-59
2023/01/14 04:41:01;;;;;;;22.73;18.60;;;;;;;7.88;100.00;102007.00;2098087;28;20174;-60
2023/01/14 04:43:21;;;;;;;25.05;19.85;;;;;;;7.90;100.00;102002.69;2098186;28;20161;-59
2023/01/14 04:44:21;;;;;;;23.97;20.37;;;;;;;7.90;100.00;102001.91;2098026;28;20209;-59
2023/01/14 04:45:22;;;;;;;24.30;20.83;;;;;;;7.90;100.00;102001.91;2097754;28;20225;-60
2023/01/14 04:46:22;;;;;;;23.17;19.83;;;;;;;7.90;100.00;102013.72;2098159;28;20182;-59
2023/01/14 04:47:24;;;;;;;21.93;19.63;;;;;;;7.90;100.00;102005.44;2098100;28;20183;-59
2023/01/14 04:48:25;;;;;;;26.25;19.85;;;;;;;7.91;100.00;102006.25;2099938;28;20185;-59
2023/01/14 04:49:25;;;;;;;21.50;19.07;;;;;;;7.92;100.00;102011.41;2098977;28;20189;-59
2023/01/14 04:50:32;;;;;;;22.00;18.60;;;;;;;7.91;100.00;102004.28;2106156;28;20185;-60
2023/01/14 04:51:33;;;;;;;26.40;23.60;;;;;;;7.90;100.00;101999.91;2098127;28;20166;-60
2023/01/14 04:52:33;;;;;;;28.37;23.83;;;;;;;7.94;100.00;102008.25;2098091;28;20412;-60
2023/01/14 04:53:33;;;;;;;28.67;24.83;;;;;;;7.89;100.00;102008.59;2104921;28;20183;-59
2023/01/14 04:54:34;;;;;;;31.70;26.33;;;;;;;7.90;100.00;102008.19;2106406;28;20172;-59
2023/01/14 04:55:37;;;;;;;27.57;24.23;;;;;;;7.86;100.00;102012.13;2106236;28;20727;-59
2023/01/14 04:56:37;;;;;;;27.25;24.15;;;;;;;7.84;100.00;102008.97;2106266;28;20185;-60
2023/01/14 04:57:38;;;;;;;29.77;24.83;;;;;;;7.83;100.00;102016.44;2106393;28;20174;-59
2023/01/14 04:58:38;;;;;;;26.40;22.83;;;;;;;7.79;100.00;102007.31;2106466;28;20182;-60
2023/01/14 04:59:38;;;;;;;24.97;22.30;;;;;;;7.76;100.00;102013.63;2099506;28;20212;-60
2023/01/14 05:00:40;;;;;;;26.73;23.40;;;;;;;7.72;100.00;102021.06;2103708;28;20594;-59
2023/01/14 05:01:40;;;;;;;25.27;22.40;;;;;;;7.72;100.00;102015.53;2106014;28;20660;-58
2023/01/14 05:02:40;;;;;;;24.70;21.90;;;;;;;7.72;100.00;102015.53;2106345;28;20555;-60
2023/01/14 05:03:41;;;;;;;24.07;20.13;;;;;;;7.41;100.00;101963.59;2106327;28;20204;-59
2023/01/14 05:04:41;;;;;;;26.00;21.87;;;;;;;7.70;100.00;102017.88;2106517;28;20262;-59